sensor_id;sensor_type;location;lat;lon;timestamp;P1;durP1;ratioP1;P2;durP2;ratioP2
56746;SDS011;42623;49.978;9.966;2022-12-18T00:00:07;15.83;;;10.50;;
56746;SDS011;42623;49.978;9.966;2022-12-18T00:00:18;14.50;;;9.90;;
56746;SDS011;42623;49.978;9.966;2022-12-18T00:00:28;12.10;;;9.80;;
56746;SDS011;42623;49.978;9.966;2022-12-18T00:00:41;12.60;;;9.93;;
56746;SDS011;42623;49.978;9.966;2022-12-18T00:00:51;15.82;;;11.25;;
56746;SDS011;42623;49.978;9.966;2022-12-18T00:01:02;15.50;;;11.10;;
56746;SDS011;42623;49.978;9.966;2022-12-18T00:01:17;18.38;;;10.95;;
56746;SDS011;42623;49.978;9.966;2022-12-18T00:01:29;18.15;;;11.13;;
56746;SDS011;42623;49.978;9.966;2022-12-18T00:01:41;17.08;;;11.30;;
56746;SDS011;42623;49.978;9.966;2022-12-18T00:01:51;15.07;;;10.57;;
56746;SDS011;42623;49.978;9.966;2022-12-18T00:02:01;13.43;;;10.47;;
56746;SDS011;42623;49.978;9.966;2022-12-18T00:02:11;11.53;;;9.93;;
56746;SDS011;42623;49.978;9.966;2022-12-18T00:02:21;12.25;;;10.60;;
56746;SDS011;42623;49.978;9.966;2022-12-18T00:02:32;13.53;;;10.47;;
56746;SDS011;42623;49.978;9.966;2022-12-18T00:02:42;13.53;;;9.87;;
56746;SDS011;42623;49.978;9.966;2022-12-18T00:02:52;14.57;;;9.80;;
56746;SDS011;42623;49.978;9.966;2022-12-18T00:03:02;16.57;;;11.57;;
56746;SDS011;42623;49.978;9.966;2022-12-18T00:03:13;17.73;;;12.90;;
56746;SDS011;42623;49.978;9.966;2022-12-18T00:03:24;19.50;;;14.23;;
56746;SDS011;42623;49.978;9.966;2022-12-18T00:03:35;20.17;;;14.40;;
56746;SDS011;42623;49.978;9.966;2022-12-18T00:03:45;20.52;;;14.43;;
56746;SDS011;42623;49.978;9.966;2022-12-18T00:03:55;18.87;;;13.93;;
56746;SDS011;42623;49.978;9.966;2022-12-18T00:04:06;18.93;;;14.40;;
56746;SDS011;42623;49.978;9.966;2022-12-18T00:04:24;18.70;;;15.52;;
56746;SDS011;42623;49.978;9.966;2022-12-18T00:04:34;18.25;;;15.13;;
56746;SDS011;42623;49.978;9.966;2022-12-18T00:04:44;18.97;;;15.33;;
56746;SDS011;42623;49.978;9.966;2022-12-18T00:04:55;19.03;;;15.00;;
56746;SDS011;42623;49.978;9.966;2022-12-18T00:05:05;21.23;;;15.60;;
56746;SDS011;42623;49.978;9.966;2022-12-18T00:05:15;21.07;;;15.83;;
56746;SDS011;42623;49.978;9.966;2022-12-18T00:05:25;20.80;;;17.37;;
56746;SDS011;42623;49.978;9.966;2022-12-18T00:05:36;21.80;;;17.73;;
56746;SDS011;42623;49.978;9.966;2022-12-18T00:05:49;20.07;;;16.77;;
56746;SDS011;42623;49.978;9.966;2022-12-18T00:06:00;17.73;;;14.95;;
56746;SDS011;42623;49.978;9.966;2022-12-18T00:06:10;18.47;;;16.03;;
56746;SDS011;42623;49.978;9.966;2022-12-18T00:06:21;21.00;;;17.25;;
56746;SDS011;42623;49.978;9.966;2022-12-18T00:06:32;22.85;;;16.85;;
56746;SDS011;42623;49.978;9.966;2022-12-18T00:06:42;21.73;;;16.07;;
56746;SDS011;42623;49.978;9.966;2022-12-18T00:06:53;21.33;;;15.67;;
56746;SDS011;42623;49.978;9.966;2022-12-18T00:07:03;17.92;;;14.95;;
56746;SDS011;42623;49.978;9.966;2022-12-18T00:07:13;18.47;;;15.43;;
56746;SDS011;42623;49.978;9.966;2022-12-18T00:07:24;18.00;;;15.00;;
56746;SDS011;42623;49.978;9.966;2022-12-18T00:07:34;18.80;;;15.65;;
56746;SDS011;42623;49.978;9.966;2022-12-18T00:07:45;19.95;;;15.52;;
56746;SDS011;42623;49.978;9.966;2022-12-18T00:07:55;20.73;;;15.23;;
56746;SDS011;42623;49.978;9.966;2022-12-18T00:08:05;19.67;;;14.70;;
56746;SDS011;42623;49.978;9.966;2022-12-18T00:08:15;18.53;;;13.50;;
56746;SDS011;42623;49.978;9.966;2022-12-18T00:08:26;18.90;;;13.48;;
56746;SDS011;42623;49.978;9.966;2022-12-18T00:08:36;18.33;;;12.83;;
56746;SDS011;42623;49.978;9.966;2022-12-18T00:08:46;17.35;;;12.93;;
56746;SDS011;42623;49.978;9.966;2022-12-18T00:08:57;15.93;;;12.77;;
56746;SDS011;42623;49.978;9.966;2022-12-18T00:09:08;15.75;;;12.75;;
56746;SDS011;42623;49.978;9.966;2022-12-18T00:09:19;16.45;;;12.95;;
56746;SDS011;42623;49.978;9.966;2022-12-18T00:09:29;17.65;;;12.70;;
56746;SDS011;42623;49.978;9.966;2022-12-18T00:09:39;17.10;;;12.00;;
56746;SDS011;42623;49.978;9.966;2022-12-18T00:09:49;16.07;;;11.93;;
56746;SDS011;42623;49.978;9.966;2022-12-18T00:09:59;15.80;;;11.67;;
56746;SDS011;42623;49.978;9.966;2022-12-18T00:10:10;17.23;;;12.43;;
56746;SDS011;42623;49.978;9.966;2022-12-18T00:10:20;16.30;;;11.57;;
56746;SDS011;42623;49.978;9.966;2022-12-18T00:10:30;16.57;;;11.07;;
56746;SDS011;42623;49.978;9.966;2022-12-18T00:10:40;15.97;;;10.23;;
56746;SDS011;42623;49.978;9.966;2022-12-18T00:10:50;16.50;;;10.27;;
56746;SDS011;42623;49.978;9.966;2022-12-18T00:11:04;20.50;;;11.50;;
56746;SDS011;42623;49.978;9.966;2022-12-18T00:11:16;21.23;;;11.85;;
56746;SDS011;42623;49.978;9.966;2022-12-18T00:11:27;19.23;;;11.35;;
56746;SDS011;42623;49.978;9.966;2022-12-18T00:11:38;15.43;;;11.13;;
56746;SDS011;42623;49.978;9.966;2022-12-18T00:11:48;14.67;;;11.00;;
56746;SDS011;42623;49.978;9.966;2022-12-18T00:11:58;15.13;;;11.93;;
56746;SDS011;42623;49.978;9.966;2022-12-18T00:21:00;21.35;;;13.93;;
56746;SDS011;42623;49.978;9.966;2022-12-18T00:21:11;14.40;;;9.98;;
56746;SDS011;42623;49.978;9.966;2022-12-18T00:21:21;12.93;;;9.52;;
56746;SDS011;42623;49.978;9.966;2022-12-18T00:21:32;10.52;;;8.15;;
56746;SDS011;42623;49.978;9.966;2022-12-18T00:21:43;14.60;;;9.60;;
56746;SDS011;42623;49.978;9.966;2022-12-18T00:21:53;16.40;;;10.45;;
56746;SDS011;42623;49.978;9.966;2022-12-18T00:22:03;18.03;;;10.50;;
56746;SDS011;42623;49.978;9.966;2022-12-18T00:22:13;17.57;;;11.07;;
56746;SDS011;42623;49.978;9.966;2022-12-18T00:22:23;17.20;;;10.87;;
56746;SDS011;42623;49.978;9.966;2022-12-18T00:22:34;15.37;;;10.97;;
56746;SDS011;42623;49.978;9.966;2022-12-18T00:22:44;15.67;;;11.30;;
56746;SDS011;42623;49.978;9.966;2022-12-18T00:22:54;16.58;;;12.65;;
56746;SDS011;42623;49.978;9.966;2022-12-18T00:23:05;17.50;;;13.60;;
56746;SDS011;42623;49.978;9.966;2022-12-18T00:23:16;18.90;;;13.57;;
56746;SDS011;42623;49.978;9.966;2022-12-18T00:23:26;20.90;;;13.98;;
56746;SDS011;42623;49.978;9.966;2022-12-18T00:23:36;21.83;;;14.30;;
56746;SDS011;42623;49.978;9.966;2022-12-18T00:23:48;20.83;;;14.37;;
56746;SDS011;42623;49.978;9.966;2022-12-18T00:23:58;19.40;;;13.98;;
56746;SDS011;42623;49.978;9.966;2022-12-18T00:24:09;16.48;;;13.05;;
56746;SDS011;42623;49.978;9.966;2022-12-18T00:24:20;16.60;;;12.50;;
56746;SDS011;42623;49.978;9.966;2022-12-18T00:24:30;18.23;;;12.43;;
56746;SDS011;42623;49.978;9.966;2022-12-18T00:24:40;18.77;;;12.95;;
56746;SDS011;42623;49.978;9.966;2022-12-18T00:24:50;18.53;;;13.13;;
56746;SDS011;42623;49.978;9.966;2022-12-18T00:25:00;18.53;;;12.43;;
56746;SDS011;42623;49.978;9.966;2022-12-18T00:25:11;21.53;;;14.03;;
56746;SDS011;42623;49.978;9.966;2022-12-18T00:25:21;21.83;;;14.50;;
56746;SDS011;42623;49.978;9.966;2022-12-18T00:25:34;19.23;;;14.17;;
56746;SDS011;42623;49.978;9.966;2022-12-18T00:25:45;20.67;;;13.95;;
56746;SDS011;42623;49.978;9.966;2022-12-18T00:25:58;20.23;;;14.33;;
56746;SDS011;42623;49.978;9.966;2022-12-18T00:26:13;16.60;;;14.32;;
56746;SDS011;42623;49.978;9.966;2022-12-18T00:26:25;16.02;;;13.68;;
56746;SDS011;42623;49.978;9.966;2022-12-18T00:26:36;16.02;;;12.70;;
56746;SDS011;42623;49.978;9.966;2022-12-18T00:26:47;16.42;;;13.18;;
56746;SDS011;42623;49.978;9.966;2022-12-18T00:26:57;17.40;;;13.13;;
56746;SDS011;42623;49.978;9.966;2022-12-18T00:27:07;18.45;;;13.80;;
56746;SDS011;42623;49.978;9.966;2022-12-18T00:27:17;19.77;;;13.40;;
56746;SDS011;42623;49.978;9.966;2022-12-18T00:27:27;19.57;;;13.90;;
56746;SDS011;42623;49.978;9.966;2022-12-18T00:27:38;18.13;;;12.93;;
56746;SDS011;42623;49.978;9.966;2022-12-18T00:27:48;17.50;;;12.57;;
56746;SDS011;42623;49.978;9.966;2022-12-18T00:27:58;15.63;;;12.27;;
56746;SDS011;42623;49.978;9.966;2022-12-18T00:28:08;20.20;;;12.80;;
56746;SDS011;42623;49.978;9.966;2022-12-18T00:28:18;19.73;;;13.05;;
56746;SDS011;42623;49.978;9.966;2022-12-18T00:28:28;19.43;;;12.33;;
56746;SDS011;42623;49.978;9.966;2022-12-18T00:28:39;14.77;;;12.47;;
56746;SDS011;42623;49.978;9.966;2022-12-18T00:28:49;14.20;;;12.20;;
56746;SDS011;42623;49.978;9.966;2022-12-18T00:29:00;14.85;;;12.18;;
56746;SDS011;42623;49.978;9.966;2022-12-18T00:29:11;15.32;;;11.70;;
56746;SDS011;42623;49.978;9.966;2022-12-18T00:29:23;16.58;;;11.70;;
56746;SDS011;42623;49.978;9.966;2022-12-18T00:29:33;15.63;;;11.73;;
56746;SDS011;42623;49.978;9.966;2022-12-18T00:29:44;13.97;;;10.80;;
56746;SDS011;42623;49.978;9.966;2022-12-18T00:29:54;12.85;;;10.50;;
56746;SDS011;42623;49.978;9.966;2022-12-18T00:30:04;18.10;;;10.90;;
56746;SDS011;42623;49.978;9.966;2022-12-18T00:30:15;19.23;;;11.85;;
56746;SDS011;42623;49.978;9.966;2022-12-18T00:30:25;20.17;;;12.77;;
56746;SDS011;42623;49.978;9.966;2022-12-18T00:30:35;15.87;;;12.53;;
56746;SDS011;42623;49.978;9.966;2022-12-18T00:30:45;16.55;;;12.52;;
56746;SDS011;42623;49.978;9.966;2022-12-18T00:30:59;15.77;;;12.33;;
56746;SDS011;42623;49.978;9.966;2022-12-18T00:31:11;15.65;;;12.30;;
56746;SDS011;42623;49.978;9.966;2022-12-18T00:31:23;16.25;;;11.77;;
56746;SDS011;42623;49.978;9.966;2022-12-18T00:31:33;17.05;;;12.05;;
56746;SDS011;42623;49.978;9.966;2022-12-18T00:31:44;17.30;;;11.95;;
56746;SDS011;42623;49.978;9.966;2022-12-18T00:31:54;16.40;;;11.50;;
56746;SDS011;42623;49.978;9.966;2022-12-18T00:32:04;15.70;;;11.47;;
56746;SDS011;42623;49.978;9.966;2022-12-18T00:32:14;17.23;;;11.70;;
56746;SDS011;42623;49.978;9.966;2022-12-18T00:32:24;18.13;;;12.30;;
56746;SDS011;42623;49.978;9.966;2022-12-18T00:32:34;16.65;;;11.65;;
56746;SDS011;42623;49.978;9.966;2022-12-18T00:32:44;17.00;;;12.10;;
56746;SDS011;42623;49.978;9.966;2022-12-18T00:32:55;16.07;;;11.80;;
56746;SDS011;42623;49.978;9.966;2022-12-18T00:33:05;17.02;;;12.75;;
56746;SDS011;42623;49.978;9.966;2022-12-18T00:33:15;17.70;;;13.30;;
56746;SDS011;42623;49.978;9.966;2022-12-18T00:33:25;18.20;;;13.80;;
56746;SDS011;42623;49.978;9.966;2022-12-18T00:33:36;17.30;;;13.40;;
56746;SDS011;42623;49.978;9.966;2022-12-18T00:33:46;15.95;;;13.32;;
56746;SDS011;42623;49.978;9.966;2022-12-18T00:33:57;16.83;;;13.70;;
56746;SDS011;42623;49.978;9.966;2022-12-18T00:34:09;17.63;;;14.47;;
56746;SDS011;42623;49.978;9.966;2022-12-18T00:34:19;18.55;;;14.95;;
56746;SDS011;42623;49.978;9.966;2022-12-18T00:34:29;17.97;;;14.93;;
56746;SDS011;42623;49.978;9.966;2022-12-18T00:34:40;18.17;;;14.53;;
56746;SDS011;42623;49.978;9.966;2022-12-18T00:34:50;17.27;;;14.90;;
56746;SDS011;42623;49.978;9.966;2022-12-18T00:35:00;17.25;;;14.95;;
56746;SDS011;42623;49.978;9.966;2022-12-18T00:35:10;18.60;;;15.97;;
56746;SDS011;42623;49.978;9.966;2022-12-18T00:35:20;20.67;;;15.70;;
56746;SDS011;42623;49.978;9.966;2022-12-18T00:35:31;22.88;;;16.00;;
56746;SDS011;42623;49.978;9.966;2022-12-18T00:35:41;20.90;;;15.77;;
56746;SDS011;42623;49.978;9.966;2022-12-18T00:35:51;18.30;;;15.27;;
56746;SDS011;42623;49.978;9.966;2022-12-18T00:36:13;18.00;;;15.10;;
56746;SDS011;42623;49.978;9.966;2022-12-18T00:36:25;19.33;;;16.02;;
56746;SDS011;42623;49.978;9.966;2022-12-18T00:36:36;18.83;;;15.93;;
56746;SDS011;42623;49.978;9.966;2022-12-18T00:36:47;16.70;;;14.40;;
56746;SDS011;42623;49.978;9.966;2022-12-18T00:36:57;16.90;;;13.88;;
56746;SDS011;42623;49.978;9.966;2022-12-18T00:37:07;16.40;;;13.97;;
56746;SDS011;42623;49.978;9.966;2022-12-18T00:37:17;17.97;;;15.70;;
56746;SDS011;42623;49.978;9.966;2022-12-18T00:37:27;19.00;;;15.90;;
56746;SDS011;42623;49.978;9.966;2022-12-18T00:37:38;20.57;;;16.43;;
56746;SDS011;42623;49.978;9.966;2022-12-18T00:37:48;20.83;;;16.10;;
56746;SDS011;42623;49.978;9.966;2022-12-18T00:37:58;19.27;;;15.57;;
56746;SDS011;42623;49.978;9.966;2022-12-18T00:38:08;19.63;;;15.37;;
56746;SDS011;42623;49.978;9.966;2022-12-18T00:38:18;22.93;;;15.63;;
56746;SDS011;42623;49.978;9.966;2022-12-18T00:38:28;24.23;;;15.65;;
56746;SDS011;42623;49.978;9.966;2022-12-18T00:38:38;23.30;;;15.60;;
56746;SDS011;42623;49.978;9.966;2022-12-18T00:38:49;18.73;;;14.80;;
56746;SDS011;42623;49.978;9.966;2022-12-18T00:39:00;18.85;;;15.40;;
56746;SDS011;42623;49.978;9.966;2022-12-18T00:39:10;19.17;;;15.95;;
56746;SDS011;42623;49.978;9.966;2022-12-18T00:39:21;19.90;;;16.03;;
56746;SDS011;42623;49.978;9.966;2022-12-18T00:39:31;18.88;;;15.15;;
56746;SDS011;42623;49.978;9.966;2022-12-18T00:39:41;19.83;;;15.17;;
56746;SDS011;42623;49.978;9.966;2022-12-18T00:39:51;19.90;;;15.70;;
56746;SDS011;42623;49.978;9.966;2022-12-18T00:40:02;20.30;;;16.17;;
56746;SDS011;42623;49.978;9.966;2022-12-18T00:40:12;19.80;;;16.08;;
56746;SDS011;42623;49.978;9.966;2022-12-18T00:40:22;21.60;;;16.20;;
56746;SDS011;42623;49.978;9.966;2022-12-18T00:40:32;21.70;;;15.73;;
56746;SDS011;42623;49.978;9.966;2022-12-18T00:40:43;21.03;;;16.00;;
56746;SDS011;42623;49.978;9.966;2022-12-18T00:40:53;18.60;;;15.10;;
56746;SDS011;42623;49.978;9.966;2022-12-18T00:41:04;17.20;;;14.93;;
56746;SDS011;42623;49.978;9.966;2022-12-18T00:41:15;19.00;;;15.27;;
56746;SDS011;42623;49.978;9.966;2022-12-18T00:41:48;19.08;;;14.75;;
56746;SDS011;42623;49.978;9.966;2022-12-18T00:42:17;21.58;;;15.90;;
56746;SDS011;42623;49.978;9.966;2022-12-18T00:42:46;19.73;;;15.20;;
56746;SDS011;42623;49.978;9.966;2022-12-18T00:43:05;27.08;;;17.10;;
56746;SDS011;42623;49.978;9.966;2022-12-18T00:43:15;25.87;;;17.20;;
56746;SDS011;42623;49.978;9.966;2022-12-18T00:43:26;22.97;;;15.83;;
56746;SDS011;42623;49.978;9.966;2022-12-18T00:43:36;18.20;;;14.77;;
56746;SDS011;42623;49.978;9.966;2022-12-18T00:43:47;18.38;;;14.23;;
56746;SDS011;42623;49.978;9.966;2022-12-18T00:43:57;17.97;;;14.23;;
56746;SDS011;42623;49.978;9.966;2022-12-18T00:44:07;19.13;;;14.70;;
56746;SDS011;42623;49.978;9.966;2022-12-18T00:44:19;19.80;;;14.27;;
56746;SDS011;42623;49.978;9.966;2022-12-18T00:44:29;20.33;;;13.37;;
56746;SDS011;42623;49.978;9.966;2022-12-18T00:44:39;22.23;;;13.67;;
56746;SDS011;42623;49.978;9.966;2022-12-18T00:44:49;21.08;;;12.95;;
56746;SDS011;42623;49.978;9.966;2022-12-18T00:44:59;21.90;;;12.67;;
56746;SDS011;42623;49.978;9.966;2022-12-18T00:45:10;19.00;;;11.80;;
56746;SDS011;42623;49.978;9.966;2022-12-18T00:45:20;19.58;;;12.25;;
56746;SDS011;42623;49.978;9.966;2022-12-18T00:45:30;19.40;;;12.80;;
56746;SDS011;42623;49.978;9.966;2022-12-18T00:45:40;22.10;;;13.07;;
56746;SDS011;42623;49.978;9.966;2022-12-18T00:45:51;19.63;;;12.02;;
56746;SDS011;42623;49.978;9.966;2022-12-18T00:46:01;16.33;;;11.03;;
56746;SDS011;42623;49.978;9.966;2022-12-18T00:46:11;13.33;;;11.00;;
56746;SDS011;42623;49.978;9.966;2022-12-18T00:46:21;13.97;;;11.27;;
56746;SDS011;42623;49.978;9.966;2022-12-18T00:46:31;15.77;;;12.27;;
56746;SDS011;42623;49.978;9.966;2022-12-18T00:46:42;16.17;;;12.13;;
56746;SDS011;42623;49.978;9.966;2022-12-18T00:46:52;18.35;;;12.52;;
56746;SDS011;42623;49.978;9.966;2022-12-18T00:47:02;17.33;;;11.37;;
56746;SDS011;42623;49.978;9.966;2022-12-18T00:47:12;15.60;;;11.20;;
56746;SDS011;42623;49.978;9.966;2022-12-18T00:47:23;14.07;;;10.63;;
56746;SDS011;42623;49.978;9.966;2022-12-18T00:47:33;14.02;;;10.38;;
56746;SDS011;42623;49.978;9.966;2022-12-18T00:47:43;14.33;;;9.83;;
56746;SDS011;42623;49.978;9.966;2022-12-18T00:47:53;13.53;;;9.93;;
56746;SDS011;42623;49.978;9.966;2022-12-18T00:48:03;15.00;;;10.77;;
56746;SDS011;42623;49.978;9.966;2022-12-18T00:48:14;16.90;;;11.10;;
56746;SDS011;42623;49.978;9.966;2022-12-18T00:48:24;17.63;;;10.97;;
56746;SDS011;42623;49.978;9.966;2022-12-18T00:48:34;17.23;;;10.70;;
56746;SDS011;42623;49.978;9.966;2022-12-18T00:48:44;19.10;;;11.57;;
56746;SDS011;42623;49.978;9.966;2022-12-18T00:48:54;19.83;;;12.00;;
56746;SDS011;42623;49.978;9.966;2022-12-18T00:49:04;19.53;;;12.50;;
56746;SDS011;42623;49.978;9.966;2022-12-18T00:49:16;15.43;;;11.43;;
56746;SDS011;42623;49.978;9.966;2022-12-18T00:49:27;14.00;;;11.30;;
56746;SDS011;42623;49.978;9.966;2022-12-18T00:49:37;16.87;;;11.40;;
56746;SDS011;42623;49.978;9.966;2022-12-18T00:49:47;17.07;;;12.07;;
56746;SDS011;42623;49.978;9.966;2022-12-18T00:49:58;16.92;;;11.48;;
56746;SDS011;42623;49.978;9.966;2022-12-18T00:50:08;13.67;;;11.13;;
56746;SDS011;42623;49.978;9.966;2022-12-18T00:50:19;13.93;;;10.50;;
56746;SDS011;42623;49.978;9.966;2022-12-18T00:50:29;13.60;;;9.93;;
56746;SDS011;42623;49.978;9.966;2022-12-18T00:50:39;15.33;;;10.80;;
56746;SDS011;42623;49.978;9.966;2022-12-18T00:50:50;15.87;;;11.27;;
56746;SDS011;42623;49.978;9.966;2022-12-18T00:51:00;15.73;;;11.88;;
56746;SDS011;42623;49.978;9.966;2022-12-18T00:51:10;15.40;;;11.67;;
56746;SDS011;42623;49.978;9.966;2022-12-18T00:51:20;13.83;;;11.20;;
56746;SDS011;42623;49.978;9.966;2022-12-18T00:51:30;15.13;;;11.63;;
56746;SDS011;42623;49.978;9.966;2022-12-18T00:51:41;14.43;;;10.90;;
56746;SDS011;42623;49.978;9.966;2022-12-18T00:51:51;14.33;;;10.93;;
56746;SDS011;42623;49.978;9.966;2022-12-18T00:52:01;15.47;;;11.43;;
56746;SDS011;42623;49.978;9.966;2022-12-18T00:52:11;13.93;;;10.77;;
56746;SDS011;42623;49.978;9.966;2022-12-18T00:52:21;14.73;;;10.80;;
56746;SDS011;42623;49.978;9.966;2022-12-18T00:52:32;14.43;;;9.60;;
56746;SDS011;42623;49.978;9.966;2022-12-18T00:52:42;15.43;;;10.30;;
56746;SDS011;42623;49.978;9.966;2022-12-18T00:52:52;17.65;;;11.15;;
56746;SDS011;42623;49.978;9.966;2022-12-18T00:53:02;18.57;;;12.13;;
56746;SDS011;42623;49.978;9.966;2022-12-18T00:53:12;18.87;;;11.93;;
56746;SDS011;42623;49.978;9.966;2022-12-18T00:53:22;16.13;;;11.43;;
56746;SDS011;42623;49.978;9.966;2022-12-18T00:53:33;14.32;;;10.95;;
56746;SDS011;42623;49.978;9.966;2022-12-18T00:53:43;15.10;;;12.10;;
56746;SDS011;42623;49.978;9.966;2022-12-18T00:53:53;15.77;;;12.27;;
56746;SDS011;42623;49.978;9.966;2022-12-18T00:54:03;16.13;;;12.60;;
56746;SDS011;42623;49.978;9.966;2022-12-18T00:54:14;15.68;;;12.48;;
56746;SDS011;42623;49.978;9.966;2022-12-18T00:54:24;17.90;;;12.73;;
56746;SDS011;42623;49.978;9.966;2022-12-18T00:54:34;18.23;;;12.37;;
56746;SDS011;42623;49.978;9.966;2022-12-18T00:54:44;19.20;;;12.43;;
56746;SDS011;42623;49.978;9.966;2022-12-18T00:54:54;19.23;;;13.53;;
56746;SDS011;42623;49.978;9.966;2022-12-18T00:55:05;19.93;;;14.80;;
56746;SDS011;42623;49.978;9.966;2022-12-18T00:55:15;18.15;;;13.98;;
56746;SDS011;42623;49.978;9.966;2022-12-18T00:55:26;17.13;;;12.63;;
56746;SDS011;42623;49.978;9.966;2022-12-18T00:55:38;15.15;;;11.07;;
56746;SDS011;42623;49.978;9.966;2022-12-18T00:55:49;16.15;;;11.60;;
56746;SDS011;42623;49.978;9.966;2022-12-18T00:55:59;15.47;;;11.90;;
56746;SDS011;42623;49.978;9.966;2022-12-18T00:56:09;16.80;;;11.70;;
56746;SDS011;42623;49.978;9.966;2022-12-18T00:56:19;16.50;;;12.17;;
56746;SDS011;42623;49.978;9.966;2022-12-18T00:56:30;17.83;;;12.43;;
56746;SDS011;42623;49.978;9.966;2022-12-18T00:56:40;18.08;;;13.00;;
56746;SDS011;42623;49.978;9.966;2022-12-18T00:56:50;17.13;;;12.07;;
56746;SDS011;42623;49.978;9.966;2022-12-18T00:57:01;16.87;;;11.77;;
56746;SDS011;42623;49.978;9.966;2022-12-18T00:57:11;16.37;;;12.03;;
56746;SDS011;42623;49.978;9.966;2022-12-18T00:57:21;16.25;;;12.82;;
56746;SDS011;42623;49.978;9.966;2022-12-18T00:57:31;19.33;;;14.27;;
56746;SDS011;42623;49.978;9.966;2022-12-18T00:57:41;21.07;;;14.23;;
56746;SDS011;42623;49.978;9.966;2022-12-18T00:57:52;21.40;;;14.73;;
56746;SDS011;42623;49.978;9.966;2022-12-18T00:58:02;19.05;;;13.82;;
56746;SDS011;42623;49.978;9.966;2022-12-18T00:58:13;16.17;;;13.17;;
56746;SDS011;42623;49.978;9.966;2022-12-18T00:58:23;16.23;;;13.07;;
56746;SDS011;42623;49.978;9.966;2022-12-18T00:58:35;15.77;;;13.63;;
56746;SDS011;42623;49.978;9.966;2022-12-18T00:58:45;17.25;;;13.63;;
56746;SDS011;42623;49.978;9.966;2022-12-18T00:58:55;17.93;;;13.50;;
56746;SDS011;42623;49.978;9.966;2022-12-18T00:59:05;19.67;;;13.48;;
56746;SDS011;42623;49.978;9.966;2022-12-18T00:59:16;20.13;;;14.40;;
56746;SDS011;42623;49.978;9.966;2022-12-18T00:59:27;19.35;;;14.65;;
56746;SDS011;42623;49.978;9.966;2022-12-18T00:59:37;17.13;;;14.13;;
56746;SDS011;42623;49.978;9.966;2022-12-18T00:59:47;19.23;;;14.13;;
56746;SDS011;42623;49.978;9.966;2022-12-18T00:59:58;19.77;;;14.45;;
56746;SDS011;42623;49.978;9.966;2022-12-18T01:00:09;21.67;;;14.90;;
56746;SDS011;42623;49.978;9.966;2022-12-18T01:00:20;19.40;;;13.98;;
56746;SDS011;42623;49.978;9.966;2022-12-18T01:00:30;18.90;;;14.00;;
56746;SDS011;42623;49.978;9.966;2022-12-18T01:00:41;21.63;;;14.53;;
56746;SDS011;42623;49.978;9.966;2022-12-18T01:00:51;22.57;;;15.17;;
56746;SDS011;42623;49.978;9.966;2022-12-18T01:01:03;24.52;;;15.23;;
56746;SDS011;42623;49.978;9.966;2022-12-18T01:01:13;23.90;;;16.60;;
56746;SDS011;42623;49.978;9.966;2022-12-18T01:01:23;25.03;;;15.77;;
56746;SDS011;42623;49.978;9.966;2022-12-18T01:01:33;22.23;;;15.40;;
56746;SDS011;42623;49.978;9.966;2022-12-18T01:01:44;18.87;;;13.40;;
56746;SDS011;42623;49.978;9.966;2022-12-18T01:01:54;17.73;;;13.38;;
56746;SDS011;42623;49.978;9.966;2022-12-18T01:02:04;15.70;;;12.30;;
56746;SDS011;42623;49.978;9.966;2022-12-18T01:02:14;16.63;;;12.23;;
56746;SDS011;42623;49.978;9.966;2022-12-18T01:02:24;16.63;;;12.83;;
56746;SDS011;42623;49.978;9.966;2022-12-18T01:02:35;19.03;;;14.30;;
56746;SDS011;42623;49.978;9.966;2022-12-18T01:02:45;19.67;;;14.87;;
56746;SDS011;42623;49.978;9.966;2022-12-18T01:02:55;17.87;;;14.10;;
56746;SDS011;42623;49.978;9.966;2022-12-18T01:03:05;16.83;;;14.07;;
56746;SDS011;42623;49.978;9.966;2022-12-18T01:03:15;15.83;;;13.77;;
56746;SDS011;42623;49.978;9.966;2022-12-18T01:03:25;16.23;;;13.80;;
56746;SDS011;42623;49.978;9.966;2022-12-18T01:03:35;15.67;;;13.20;;
56746;SDS011;42623;49.978;9.966;2022-12-18T01:03:46;18.90;;;12.80;;
56746;SDS011;42623;49.978;9.966;2022-12-18T01:03:56;20.47;;;12.60;;
56746;SDS011;42623;49.978;9.966;2022-12-18T01:04:06;26.47;;;13.33;;
56746;SDS011;42623;49.978;9.966;2022-12-18T01:04:17;23.77;;;13.32;;
56746;SDS011;42623;49.978;9.966;2022-12-18T01:04:27;24.83;;;14.20;;
56746;SDS011;42623;49.978;9.966;2022-12-18T01:04:37;18.50;;;12.77;;
56746;SDS011;42623;49.978;9.966;2022-12-18T01:04:47;17.33;;;12.32;;
56746;SDS011;42623;49.978;9.966;2022-12-18T01:04:57;16.13;;;11.37;;
56746;SDS011;42623;49.978;9.966;2022-12-18T01:05:08;17.03;;;11.63;;
56746;SDS011;42623;49.978;9.966;2022-12-18T01:05:18;17.42;;;12.23;;
56746;SDS011;42623;49.978;9.966;2022-12-18T01:05:28;14.57;;;11.47;;
56746;SDS011;42623;49.978;9.966;2022-12-18T01:05:42;17.80;;;12.53;;
56746;SDS011;42623;49.978;9.966;2022-12-18T01:05:52;18.45;;;12.90;;
56746;SDS011;42623;49.978;9.966;2022-12-18T01:06:06;17.53;;;12.37;;
56746;SDS011;42623;49.978;9.966;2022-12-18T01:06:16;16.38;;;11.38;;
56746;SDS011;42623;49.978;9.966;2022-12-18T01:06:26;19.38;;;12.30;;
56746;SDS011;42623;49.978;9.966;2022-12-18T01:06:37;18.23;;;12.30;;
56746;SDS011;42623;49.978;9.966;2022-12-18T01:06:47;18.03;;;12.93;;
56746;SDS011;42623;49.978;9.966;2022-12-18T01:06:57;15.80;;;12.23;;
56746;SDS011;42623;49.978;9.966;2022-12-18T01:07:07;17.27;;;12.60;;
56746;SDS011;42623;49.978;9.966;2022-12-18T01:07:17;16.13;;;11.97;;
56746;SDS011;42623;49.978;9.966;2022-12-18T01:07:27;15.13;;;11.37;;
56746;SDS011;42623;49.978;9.966;2022-12-18T01:07:38;14.60;;;11.60;;
56746;SDS011;42623;49.978;9.966;2022-12-18T01:07:48;15.30;;;12.02;;
56746;SDS011;42623;49.978;9.966;2022-12-18T01:07:58;15.87;;;12.13;;
56746;SDS011;42623;49.978;9.966;2022-12-18T01:08:08;17.07;;;12.13;;
56746;SDS011;42623;49.978;9.966;2022-12-18T01:08:18;17.25;;;13.00;;
56746;SDS011;42623;49.978;9.966;2022-12-18T01:08:29;18.60;;;14.47;;
56746;SDS011;42623;49.978;9.966;2022-12-18T01:08:39;16.93;;;13.93;;
56746;SDS011;42623;49.978;9.966;2022-12-18T01:08:49;18.03;;;13.50;;
56746;SDS011;42623;49.978;9.966;2022-12-18T01:08:59;17.30;;;12.70;;
56746;SDS011;42623;49.978;9.966;2022-12-18T01:09:09;19.13;;;13.33;;
56746;SDS011;42623;49.978;9.966;2022-12-18T01:09:19;19.47;;;12.83;;
56746;SDS011;42623;49.978;9.966;2022-12-18T01:09:30;20.07;;;12.87;;
56746;SDS011;42623;49.978;9.966;2022-12-18T01:09:40;18.90;;;12.38;;
56746;SDS011;42623;49.978;9.966;2022-12-18T01:09:50;17.33;;;12.00;;
56746;SDS011;42623;49.978;9.966;2022-12-18T01:10:00;17.57;;;11.87;;
56746;SDS011;42623;49.978;9.966;2022-12-18T01:10:11;17.10;;;11.40;;
56746;SDS011;42623;49.978;9.966;2022-12-18T01:10:21;16.85;;;11.30;;
56746;SDS011;42623;49.978;9.966;2022-12-18T01:10:32;16.73;;;10.82;;
56746;SDS011;42623;49.978;9.966;2022-12-18T01:10:42;15.20;;;10.97;;
56746;SDS011;42623;49.978;9.966;2022-12-18T01:10:52;18.80;;;12.43;;
56746;SDS011;42623;49.978;9.966;2022-12-18T01:11:09;17.73;;;13.13;;
56746;SDS011;42623;49.978;9.966;2022-12-18T01:11:19;17.52;;;13.63;;
56746;SDS011;42623;49.978;9.966;2022-12-18T01:11:30;20.63;;;13.77;;
56746;SDS011;42623;49.978;9.966;2022-12-18T01:11:40;21.35;;;13.38;;